createdAt,value
2023-01-09T00:02:44.352Z,1.45
2023-01-09T00:07:40.811Z,1.25
2023-01-09T00:12:37.602Z,1.40
2023-01-09T00:17:33.956Z,1.45
2023-01-09T00:22:31.140Z,1.73
2023-01-09T00:27:31.090Z,1.60
2023-01-09T00:32:28.265Z,1.90
2023-01-09T00:37:24.928Z,1.98
2023-01-09T00:42:24.669Z,2.00
2023-01-09T00:47:26.558Z,2.15
2023-01-09T00:52:22.950Z,1.90
2023-01-09T00:57:19.375Z,1.90
2023-01-09T01:02:15.844Z,2.13
2023-01-09T01:07:31.589Z,1.92
2023-01-09T01:12:27.960Z,2.08
2023-01-09T01:17:24.592Z,1.73
2023-01-09T01:22:21.313Z,1.70
2023-01-09T01:27:17.949Z,1.00
2023-01-09T01:32:14.355Z,1.15
2023-01-09T01:37:10.757Z,0.82
2023-01-09T01:42:07.421Z,0.60
2023-01-09T01:47:03.841Z,0.60
2023-01-09T01:52:00.249Z,0.60
2023-01-09T01:57:01.235Z,0.40
2023-01-09T02:02:00.639Z,0.60
2023-01-09T02:06:58.759Z,0.47
2023-01-09T02:11:57.773Z,0.30
2023-01-09T02:17:28.072Z,0.40
2023-01-09T02:23:00.276Z,0.47
2023-01-09T02:28:30.176Z,0.15
2023-01-09T02:33:35.593Z,0.30
2023-01-09T02:39:00.024Z,0.40
2023-01-09T02:44:12.819Z,0.38
2023-01-09T02:49:09.394Z,0.30
2023-01-09T02:54:21.765Z,0.35
2023-01-09T02:59:44.179Z,0.35
2023-01-09T03:04:59.598Z,0.30
2023-01-09T03:10:12.219Z,0.35
2023-01-09T03:15:13.499Z,0.30
2023-01-09T03:20:12.223Z,0.30
2023-01-09T03:30:05.741Z,0.25
2023-01-09T03:35:02.338Z,0.20
2023-01-09T03:39:58.720Z,0.32
2023-01-09T03:44:55.050Z,0.40
2023-01-09T03:49:51.397Z,0.35
2023-01-09T03:54:47.727Z,0.57
2023-01-09T03:59:44.112Z,1.30
2023-01-09T04:04:41.424Z,1.77
2023-01-09T04:09:37.782Z,1.60
2023-01-09T04:14:34.175Z,1.40
2023-01-09T04:19:30.556Z,1.88
2023-01-09T04:24:28.394Z,1.98
2023-01-09T04:29:24.802Z,2.80
2023-01-09T04:34:25.632Z,2.65
2023-01-09T04:39:22.294Z,2.75
2023-01-09T04:44:20.712Z,2.80
2023-01-09T04:49:17.118Z,2.95
2023-01-09T04:54:13.772Z,3.67
2023-01-09T04:59:10.178Z,3.90
2023-01-09T05:04:07.065Z,4.25
2023-01-09T05:09:03.729Z,5.45
2023-01-09T05:14:00.151Z,4.68
2023-01-09T05:18:57.567Z,5.22
2023-01-09T05:23:54.043Z,6.40
2023-01-09T05:28:56.191Z,7.05
2023-01-09T05:33:53.751Z,8.07
2023-01-09T05:38:50.103Z,7.68
2023-01-09T05:43:46.454Z,7.05
2023-01-09T05:48:42.816Z,8.27
2023-01-09T05:53:39.199Z,8.32
2023-01-09T05:58:35.547Z,7.47
2023-01-09T06:03:32.073Z,7.10
2023-01-09T06:08:28.379Z,6.78
2023-01-09T06:13:24.812Z,6.65
2023-01-09T06:18:21.218Z,6.47
2023-01-09T06:23:17.733Z,6.75
2023-01-09T06:28:14.077Z,5.93
2023-01-09T06:33:10.736Z,6.68
2023-01-09T06:38:07.126Z,5.63
2023-01-09T06:43:03.524Z,5.35
2023-01-09T06:48:00.010Z,5.22
2023-01-09T06:52:56.417Z,5.93
2023-01-09T06:57:53.140Z,4.63
2023-01-09T07:02:49.482Z,4.78
2023-01-09T07:07:45.832Z,4.00
2023-01-09T07:12:42.217Z,3.97
2023-01-09T07:17:38.605Z,2.85
2023-01-09T07:22:35.001Z,5.53
2023-01-09T07:27:31.360Z,4.90
2023-01-09T07:32:27.737Z,4.05
2023-01-09T07:37:24.701Z,3.25
2023-01-09T07:42:21.123Z,3.53
2023-01-09T07:47:17.539Z,2.60
2023-01-09T07:52:14.330Z,3.20
2023-01-09T07:57:10.675Z,2.25
2023-01-09T08:02:09.248Z,2.58
2023-01-09T08:07:05.619Z,2.92
2023-01-09T08:12:01.999Z,2.97
2023-01-09T08:16:58.420Z,2.72
2023-01-09T08:21:54.760Z,2.08
2023-01-09T08:26:51.109Z,2.20
2023-01-09T08:31:47.669Z,1.90
2023-01-09T08:36:44.064Z,2.75
2023-01-09T08:41:59.039Z,2.83
2023-01-09T08:47:07.647Z,2.28
2023-01-09T08:52:05.881Z,1.70
2023-01-09T08:57:02.638Z,2.47
2023-01-09T09:01:59.064Z,1.30
2023-01-09T09:06:55.496Z,1.30
2023-01-09T09:11:51.892Z,1.45
2023-01-09T09:16:49.510Z,1.35
2023-01-09T09:21:45.919Z,1.00
2023-01-09T09:26:44.424Z,1.02
2023-01-09T09:36:37.358Z,1.58
2023-01-09T09:42:09.645Z,0.60
2023-01-09T09:47:13.349Z,1.40
2023-01-09T09:52:44.348Z,0.60
2023-01-09T09:57:41.356Z,0.50
2023-01-09T10:02:51.700Z,0.90
2023-01-09T10:07:51.056Z,1.00
2023-01-09T10:12:58.874Z,0.80
2023-01-09T10:18:17.396Z,0.80
2023-01-09T10:23:40.237Z,0.88
2023-01-09T10:28:51.436Z,0.50
2023-01-09T10:34:07.680Z,0.85
2023-01-09T10:39:09.732Z,0.77
2023-01-09T10:44:23.386Z,0.77
2023-01-09T10:49:20.675Z,0.57
2023-01-09T10:54:23.662Z,0.80
2023-01-09T10:59:20.107Z,1.08
2023-01-09T11:04:25.930Z,0.82
2023-01-09T11:09:22.325Z,1.00
2023-01-09T11:14:33.144Z,0.68
2023-01-09T11:19:33.013Z,0.90
2023-01-09T11:24:30.972Z,1.10
2023-01-09T11:29:27.584Z,0.73
2023-01-09T11:34:27.166Z,0.60
2023-01-09T11:39:25.983Z,1.23
2023-01-09T11:44:23.391Z,1.00
2023-01-09T11:49:31.121Z,1.48
2023-01-09T11:54:30.663Z,1.20
2023-01-09T11:59:31.311Z,1.50
2023-01-09T12:04:35.556Z,1.33
2023-01-09T12:09:59.748Z,1.98
2023-01-09T12:15:32.122Z,1.40
2023-01-09T12:20:46.781Z,0.73
2023-01-09T12:26:15.802Z,1.70
2023-01-09T12:31:20.164Z,1.00
2023-01-09T12:36:48.202Z,1.40
2023-01-09T12:42:04.328Z,1.25
2023-01-09T12:47:18.982Z,1.80
2023-01-09T12:52:23.693Z,1.42
2023-01-09T12:57:42.737Z,1.30
2023-01-09T13:02:44.867Z,1.02
2023-01-09T13:07:49.864Z,1.00
2023-01-09T13:12:48.776Z,1.25
2023-01-09T13:17:51.665Z,1.38
2023-01-09T13:22:50.692Z,1.65
2023-01-09T13:27:56.181Z,1.25
2023-01-09T13:33:14.345Z,1.67
2023-01-09T13:38:18.668Z,1.88
2023-01-09T13:43:16.631Z,1.98
2023-01-09T13:48:17.590Z,2.35
2023-01-09T13:53:20.336Z,1.58
2023-01-09T13:58:23.031Z,1.55
2023-01-09T14:03:21.552Z,2.08
2023-01-09T14:08:22.946Z,1.52
2023-01-09T14:13:45.888Z,1.55
2023-01-09T14:18:52.277Z,1.60
2023-01-09T14:24:06.147Z,2.40
2023-01-09T14:29:30.876Z,1.92
2023-01-09T14:34:37.291Z,2.90
2023-01-09T14:39:35.992Z,2.72
2023-01-09T14:49:58.676Z,2.25
2023-01-09T14:54:59.336Z,2.15
2023-01-09T15:00:00.996Z,2.40
2023-01-09T15:05:02.295Z,3.35
2023-01-09T15:10:03.929Z,2.67
2023-01-09T15:15:02.576Z,2.70
2023-01-09T15:20:00.964Z,2.70
2023-01-09T15:24:58.336Z,3.30
2023-01-09T15:29:54.860Z,2.90
2023-01-09T15:34:51.756Z,3.20
2023-01-09T15:39:48.138Z,3.10
2023-01-09T15:44:47.974Z,3.70
2023-01-09T15:49:45.980Z,3.95
2023-01-09T15:54:46.527Z,3.13
2023-01-09T15:59:42.857Z,4.15
2023-01-09T16:04:40.865Z,6.25
2023-01-09T16:09:37.816Z,6.17
2023-01-09T16:14:38.401Z,6.78
2023-01-09T16:19:40.871Z,6.72
2023-01-09T16:24:42.019Z,6.38
2023-01-09T16:29:44.854Z,7.10
2023-01-09T16:34:42.838Z,8.30
2023-01-09T16:39:39.394Z,5.40
2023-01-09T16:44:36.844Z,6.50
2023-01-09T16:49:33.203Z,5.00
2023-01-09T16:54:30.418Z,4.88
2023-01-09T16:59:27.921Z,3.60
2023-01-09T17:04:24.285Z,2.67
2023-01-09T17:09:23.164Z,2.15
2023-01-09T17:14:20.450Z,1.70
2023-01-09T17:19:19.182Z,1.85
2023-01-09T17:29:31.300Z,0.70
2023-01-09T17:34:27.621Z,1.23
2023-01-09T17:39:23.984Z,1.02
2023-01-09T17:44:20.358Z,1.50
2023-01-09T17:49:20.067Z,1.30
2023-01-09T17:54:16.535Z,1.73
2023-01-09T17:59:14.034Z,2.40
2023-01-09T18:04:12.069Z,3.05
2023-01-09T18:09:11.209Z,3.20
2023-01-09T18:14:08.268Z,2.80
2023-01-09T18:19:04.597Z,4.28
2023-01-09T18:24:01.641Z,3.67
2023-01-09T18:28:59.527Z,3.80
2023-01-09T18:33:58.056Z,3.27
2023-01-09T18:38:55.253Z,5.25
2023-01-09T18:43:56.463Z,5.47
2023-01-09T18:48:57.864Z,6.22
2023-01-09T18:53:55.158Z,8.68
2023-01-09T18:58:56.576Z,9.88
2023-01-09T19:03:53.191Z,10.00
2023-01-09T19:08:49.629Z,10.65
2023-01-09T19:13:45.989Z,10.07
2023-01-09T19:18:43.360Z,10.75
2023-01-09T19:23:41.555Z,9.93
2023-01-09T19:28:38.962Z,8.70
2023-01-09T19:33:35.318Z,9.65
2023-01-09T19:38:32.036Z,9.80
2023-01-09T19:43:28.531Z,10.63
2023-01-09T19:48:27.053Z,8.65
2023-01-09T19:53:24.522Z,9.05
2023-01-09T19:58:20.876Z,6.32
2023-01-09T20:03:17.333Z,7.05
2023-01-09T20:08:14.038Z,6.05
2023-01-09T20:13:10.415Z,5.57
2023-01-09T20:18:07.791Z,5.45
2023-01-09T20:23:04.152Z,5.13
2023-01-09T20:28:00.518Z,6.65
2023-01-09T20:32:58.182Z,6.45
2023-01-09T20:42:52.295Z,7.75
2023-01-09T20:47:48.717Z,8.00
2023-01-09T20:52:45.110Z,8.93
2023-01-09T20:57:41.436Z,8.63
2023-01-09T21:02:37.837Z,9.45
2023-01-09T21:07:34.212Z,8.95
2023-01-09T21:12:37.561Z,8.60
2023-01-09T21:17:35.496Z,9.32
2023-01-09T21:22:35.301Z,8.60
2023-01-09T21:27:35.720Z,7.95
2023-01-09T21:32:34.746Z,8.27
2023-01-09T21:37:36.830Z,8.65
2023-01-09T21:42:52.058Z,8.30
2023-01-09T21:47:48.672Z,8.98
2023-01-09T21:52:45.010Z,7.90
2023-01-09T21:57:41.342Z,8.88
2023-01-09T22:02:39.132Z,9.13
2023-01-09T22:07:35.603Z,10.77
2023-01-09T22:12:31.980Z,9.93
2023-01-09T22:17:28.826Z,10.38
2023-01-09T22:22:25.157Z,12.00
2023-01-09T22:27:21.487Z,11.38
2023-01-09T22:32:18.411Z,11.43
2023-01-09T22:37:14.811Z,11.75
2023-01-09T22:42:11.214Z,12.10
2023-01-09T22:47:07.747Z,13.82
2023-01-09T22:52:04.191Z,11.65
2023-01-09T22:57:00.495Z,12.43
2023-01-09T23:01:57.793Z,11.43
2023-01-09T23:06:54.979Z,9.90
2023-01-09T23:12:03.368Z,9.55
2023-01-09T23:16:59.852Z,9.23
2023-01-09T23:21:56.628Z,7.95
2023-01-09T23:26:54.944Z,8.70
2023-01-09T23:31:53.649Z,6.50
2023-01-09T23:42:07.447Z,5.60
2023-01-09T23:47:03.867Z,4.05
2023-01-09T23:52:02.287Z,3.58
2023-01-09T23:56:59.166Z,2.58
